Argonia, Kansas
Current Conditions -  °F | °C
As of 12:53 AM on Wednesday 26 Nov 2014 (Local Time) from KICT Reporting Station
Broken Clouds Broken Clouds  
Wind Chill: 37°   Ceiling: 11000
Heat Index: 42°   Visibility: 10mi
Dew Point: 28°   Wind: 9mph
Humidity: 58%   Direction: 190°S
Pressure: 29.94"   Gusts: NA
Location:  37.27°N, 97.77°W
Report Text: KICT 260653Z 19008KT 10SM FEW080 BKN110 BKN180 06/M02 A2994 RMK AO2 SLP141 T00561022
Loading
Personal Weather Stations






























Interactive Weather Map New forecast layout! Learn more

10-Day Weather Forecast

Advertisements
Track Severe Weather on mobile